Latest Weather Observations for Wangaratta

IDV60801

Issued at 4:05 pm EST Thursday 24 July 2014 (issued every 30 minutes, with the page automatically refreshed every 10 minutes)

About weather observations | Map of weather stations | Latest weather observations for VIC | Other Formats
Station Details ID: 082138 Name: WANGARATTA AERO Lat: -36.42 Lon: 146.31 Height: 152.6 m
Data from the previous 72 hours. | See also: Recent months at Wangaratta
Date/Time
EST
Temp
°C
App
Temp
°C
Dew
Point
Rel
Hum
%
Delta-T
°C
Wind Press
QNH
hPa
Press
MSL
hPa
Rain
since 9 am
mm
Dir
 
Spd
km/h
Gust
km/h
Spd
kts
Gust
kts
24/04:00pm 11.5 9.3 8.0 79 1.7 SE 9 11 5 6 1015.0 - 1.0
24/03:30pm 11.7 10.1 8.7 82 1.5 ESE 7 9 4 5 1015.0 - 1.0
24/03:00pm 12.3 11.9 8.2 76 2.0 CALM 0 0 0 0 1015.2 1015.5 1.0
24/02:30pm 12.5 10.4 8.2 75 2.1 E 9 11 5 6 1015.0 - 1.0
24/02:00pm 12.5 10.0 8.4 76 2.0 E 11 13 6 7 1015.4 - 1.0
24/01:30pm 12.5 10.7 9.3 81 1.6 E 9 13 5 7 1015.5 - 1.0
24/01:00pm 11.9 10.0 8.9 82 1.5 E 9 13 5 7 1016.2 - 1.0
24/12:30pm 10.7 8.8 9.1 90 0.8 ESE 9 11 5 6 1016.8 - 1.0
24/12:00pm 9.4 7.7 8.3 93 0.5 SE 7 9 4 5 1017.5 1017.9 1.0
24/11:30am 8.9 7.1 7.2 89 0.8 S 6 7 3 4 1018.1 - 0.8
24/11:00am 8.3 6.9 7.1 92 0.6 S 4 6 2 3 1018.2 - 0.8
24/10:30am 7.7 5.6 6.5 92 0.6 S 7 9 4 5 1018.3 - 0.8
24/10:00am 7.2 4.5 5.8 91 0.6 W 9 13 5 7 1018.5 - 0.8
24/09:30am 6.7 4.3 5.3 91 0.6 SW 7 9 4 5 1018.2 - 0.0
24/09:00am 6.3 4.1 5.3 93 0.4 S 6 7 3 4 1018.1 1018.5 0.2
24/08:30am 5.5 3.2 4.9 96 0.3 S 6 9 3 5 1018.1 - 0.2
24/08:00am 4.9 2.3 4.3 96 0.3 SW 7 7 4 4 1018.2 - 0.2
24/07:30am 4.4 1.8 4.0 97 0.2 S 7 9 4 5 1017.9 - 0.2
24/07:00am 4.8 1.5 4.7 99 0.0 S 11 13 6 7 1018.1 - 0.2
24/06:30am 3.8 1.1 3.7 99 0.0 SW 7 9 4 5 1018.2 - 0.2
24/06:00am 2.9 0.0 2.8 99 0.0 S 7 9 4 5 1018.1 1018.5 0.2
24/05:30am 2.9 0.0 2.8 99 0.0 S 7 9 4 5 1018.3 - 0.2
24/05:00am 3.4 0.6 3.3 99 0.0 S 7 9 4 5 1018.5 - 0.2
24/04:30am 2.0 -0.8 1.9 99 0.0 S 6 7 3 4 1018.6 - 0.2
24/04:00am 3.1 0.5 3.0 99 0.0 SSW 6 7 3 4 1018.6 - 0.2
24/03:30am 3.2 0.4 3.1 99 0.0 SW 7 9 4 5 1018.5 - 0.2
24/03:00am 2.9 0.0 2.8 99 0.0 SSW 7 9 4 5 1018.6 1019.0 0.2
24/02:30am 2.7 -0.2 2.6 99 0.0 SW 7 9 4 5 1018.9 - 0.2
24/02:00am 2.4 -0.9 2.3 99 0.0 SW 9 11 5 6 1019.0 - 0.2
24/01:30am 1.8 -1.2 1.7 99 0.0 SSW 7 7 4 4 1018.9 - 0.2
24/01:00am 2.3 -0.7 2.2 99 0.0 SSW 7 9 4 5 1019.1 - 0.2
24/12:30am 2.7 -0.6 2.6 99 0.0 SSW 9 9 5 5 1019.4 - 0.2
24/12:00am 3.0 0.2 2.9 99 0.0 SW 7 9 4 5 1019.8 1020.1 0.2
 
Date/Time
EST
Temp
°C
App
Temp
°C
Dew
Point
Rel
Hum
%
Delta-T
°C
Wind Press
QNH
hPa
Press
MSL
hPa
Rain
since 9 am
mm
Dir
 
Spd
km/h
Gust
km/h
Spd
kts
Gust
kts
23/11:30pm 2.5 -0.8 2.4 99 0.0 SSW 9 11 5 6 1020.2 - 0.2
23/11:00pm 3.3 0.5 3.2 99 0.0 SSW 7 9 4 5 1020.6 - 0.2
23/10:30pm 3.8 1.1 3.7 99 0.0 SW 7 9 4 5 1020.9 - 0.2
23/10:00pm 3.6 0.9 3.5 99 0.0 SW 7 7 4 4 1020.9 - 0.2
23/09:30pm 3.2 0.6 3.1 99 0.0 S 6 7 3 4 1021.2 - 0.2
23/09:00pm 3.1 1.2 3.0 99 0.0 SE 2 9 1 5 1021.5 1021.9 0.2
23/08:30pm 3.4 2.0 3.3 99 0.0 CALM 0 0 0 0 1021.4 - 0.2
23/08:00pm 3.6 2.2 3.5 99 0.0 CALM 0 0 0 0 1021.2 - 0.2
23/07:30pm 3.9 2.5 3.6 98 0.1 CALM 0 0 0 0 1021.0 - 0.2
23/07:00pm 5.4 4.3 5.0 97 0.2 ESE 0 0 0 0 1020.7 - 0.2
23/06:30pm 6.7 5.7 5.7 93 0.4 CALM 0 0 0 0 1020.6 - 0.2
23/06:00pm 8.0 7.3 7.1 94 0.4 CALM 0 0 0 0 1020.6 1020.9 0.2
23/05:30pm 8.3 6.1 6.4 88 0.9 ESE 7 7 4 4 1020.3 - 0.2
23/05:00pm 10.3 8.6 7.5 83 1.4 E 6 6 3 3 1020.3 - 0.2
23/04:30pm 11.5 9.9 7.8 78 1.8 ENE 6 6 3 3 1020.3 - 0.2
23/04:00pm 12.2 10.4 7.9 75 2.1 E 7 9 4 5 1020.3 - 0.2
23/03:30pm 12.6 10.6 7.3 70 2.6 ENE 7 11 4 6 1020.4 - 0.2
23/03:00pm 13.1 11.1 7.3 68 2.8 E 7 11 4 6 1020.5 1020.8 0.2
23/02:30pm 12.7 10.9 7.0 68 2.8 E 6 9 3 5 1020.7 - 0.2
23/02:00pm 12.3 10.8 7.0 70 2.6 S 4 7 2 4 1021.0 - 0.2
23/01:30pm 12.2 10.3 6.5 68 2.7 SSW 6 9 3 5 1021.4 - 0.2
23/01:00pm 11.1 9.0 6.5 73 2.2 SSE 7 9 4 5 1021.9 - 0.2
23/12:30pm 10.2 9.3 6.0 75 2.0 CALM 0 0 0 0 1022.5 - 0.2
23/12:00pm 9.1 7.0 5.7 79 1.6 W 6 7 3 4 1023.2 1023.6 0.2
23/11:30am 8.0 6.5 4.8 80 1.4 SSE 2 7 1 4 1024.0 - 0.0
23/11:00am 6.7 4.3 4.5 86 1.0 S 6 7 3 4 1024.5 - 0.0
23/10:30am 6.0 3.4 4.3 89 0.7 SSE 7 9 4 5 1024.6 - 0.0
23/10:00am 4.6 2.2 4.5 99 0.0 SE 6 9 3 5 1024.8 - 0.0
23/09:30am 3.1 1.6 3.0 99 0.0 CALM 0 0 0 0 1025.0 - 0.0
23/09:00am 1.2 -0.6 1.1 99 0.0 CALM 0 0 0 0 1025.1 1025.5 0.0
23/08:30am -0.5 -2.6 -0.6 99 0.0 CALM 0 0 0 0 1025.0 - 0.0
23/08:00am -1.8 -4.0 -1.9 99 0.0 CALM 0 0 0 0 1024.9 - 0.0
23/07:30am -2.2 -4.5 -2.3 99 -0.1 CALM 0 0 0 0 1024.7 - 0.0
23/07:00am -1.8 -4.0 -1.9 99 0.0 CALM 0 0 0 0 1024.4 - 0.0
23/06:30am -2.1 -4.4 -2.2 99 -0.1 CALM 0 0 0 0 1024.1 - 0.0
23/06:00am -2.1 -4.4 -2.2 99 -0.1 CALM 0 0 0 0 1023.8 1024.2 0.0
23/05:30am -1.5 -3.7 -1.6 99 0.0 CALM 0 0 0 0 1023.7 - 0.0
23/05:00am -1.9 -4.5 -2.0 99 -0.1 ESE 2 7 1 4 1023.8 - 0.0
23/04:30am -1.4 -3.6 -1.5 99 0.0 CALM 0 6 0 3 1023.9 - 0.0
23/04:00am -1.4 -3.6 -1.5 99 0.0 CALM 0 0 0 0 1024.1 - 0.0
23/03:30am -1.7 -3.9 -1.8 99 0.0 CALM 0 0 0 0 1023.8 - 0.0
23/03:00am -0.4 -2.5 -0.5 99 0.0 CALM 0 0 0 0 1024.1 1024.5 0.0
23/02:30am -0.6 -2.7 -0.7 99 0.0 CALM 0 4 0 2 1024.0 - 0.0
23/02:00am -0.3 -3.1 -0.4 99 0.0 WSW 4 7 2 4 1023.9 - 0.0
23/01:30am -0.8 -2.9 -0.9 99 0.0 CALM 0 0 0 0 1024.0 - 0.0
23/01:00am -0.1 -2.1 -0.2 99 0.0 CALM 0 0 0 0 1024.1 - 0.0
23/12:30am -0.1 -2.1 -0.2 99 0.0 CALM 0 0 0 0 1024.5 - 0.0
23/12:00am 0.4 -2.3 0.3 99 0.0 WSW 4 7 2 4 1024.8 1025.2 0.0
 
Date/Time
EST
Temp
°C
App
Temp
°C
Dew
Point
Rel
Hum
%
Delta-T
°C
Wind Press
QNH
hPa
Press
MSL
hPa
Rain
since 9 am
mm
Dir
 
Spd
km/h
Gust
km/h
Spd
kts
Gust
kts
22/11:30pm 1.4 -1.5 1.3 99 0.0 S 6 7 3 4 1024.8 - 0.0
22/11:00pm 1.0 -2.0 0.9 99 0.0 S 6 7 3 4 1025.1 - 0.0
22/10:30pm 1.7 -1.2 1.6 99 0.0 SSW 6 6 3 3 1025.0 - 0.0
22/10:00pm 1.9 -1.1 1.8 99 0.0 SW 7 9 4 5 1024.7 - 0.0
22/09:30pm 2.4 0.8 2.3 99 0.0 CALM 0 0 0 0 1024.5 - 0.0
22/09:00pm 2.1 -0.7 1.8 98 0.1 SE 6 6 3 3 1024.4 1024.8 0.0
22/08:30pm 1.9 -1.0 1.3 96 0.2 ENE 6 7 3 4 1024.2 - 0.0
22/08:00pm 4.0 2.6 3.6 97 0.2 CALM 0 0 0 0 1024.0 - 0.0
22/07:30pm 4.2 2.8 3.3 94 0.4 CALM 0 0 0 0 1023.8 - 0.0
22/07:00pm 5.5 4.2 4.3 92 0.5 CALM 0 0 0 0 1023.6 - 0.0
22/06:30pm 6.4 5.2 4.7 89 0.7 CALM 0 0 0 0 1023.5 - 0.0
22/06:00pm 7.4 6.2 4.4 81 1.3 CALM 0 0 0 0 1023.4 1023.8 0.0
22/05:30pm 9.5 8.6 5.9 78 1.7 CALM 0 0 0 0 1023.1 - 0.0
22/05:00pm 11.3 9.4 4.7 64 3.0 ESE 4 6 2 3 1023.0 - 0.0
22/04:30pm 12.2 9.7 3.7 56 3.8 SE 6 9 3 5 1023.0 - 0.0
22/04:00pm 12.5 9.7 3.2 53 4.2 SSE 7 7 4 4 1023.1 - 0.0
22/03:30pm 13.1 11.0 3.7 53 4.3 E 4 6 2 3 1023.3 - 0.0
22/03:00pm 12.8 10.8 4.3 56 3.9 ESE 4 9 2 5 1023.4 1023.8 0.0
22/02:30pm 12.3 10.3 4.3 58 3.7 SE 4 11 2 6 1023.5 - 0.0
22/02:00pm 12.3 10.3 4.5 59 3.6 SSE 4 7 2 4 1023.6 - 0.0
22/01:30pm 11.7 10.3 3.5 57 3.7 CALM 0 0 0 0 1024.0 - 0.0
22/01:00pm 11.3 9.3 4.5 63 3.1 W 4 7 2 4 1024.4 - 0.0
22/12:30pm 10.8 8.7 4.0 63 3.0 ESE 4 7 2 4 1024.8 - 0.0
22/12:00pm 9.5 7.5 4.3 70 2.3 SSE 4 7 2 4 1025.1 1025.5 0.0
22/11:30am 8.5 6.1 4.3 75 1.9 SE 6 9 3 5 1025.5 - 0.0
22/11:00am 8.3 6.6 3.9 74 1.9 NNE 2 7 1 4 1026.1 - 0.0
22/10:30am 5.8 3.6 3.3 84 1.1 S 4 9 2 5 1026.2 - 0.0
22/10:00am 4.6 2.1 3.6 93 0.4 SSE 6 7 3 4 1026.3 - 0.0
22/09:30am 3.2 1.0 3.1 99 0.0 SSW 4 7 2 4 1026.3 - 0.0
22/09:00am 1.5 -0.3 1.4 99 0.0 CALM 0 2 0 1 1026.0 1026.3 0.0
22/08:30am 0.1 -3.0 0.0 99 0.0 SW 6 7 3 4 1026.1 - 0.0
22/08:00am -1.4 -3.6 -1.5 99 0.0 CALM 0 0 0 0 1025.9 - 0.0
22/07:30am -1.7 -3.9 -1.8 99 0.0 CALM 0 0 0 0 1025.5 - 0.0
22/07:00am -1.7 -5.1 -1.8 99 0.0 SE 6 7 3 4 1025.1 - 0.0
22/06:30am -2.2 -4.5 -2.3 99 -0.1 CALM 0 0 0 0 1024.8 - 0.0
22/06:00am -1.8 -4.0 -1.9 99 0.0 CALM 0 0 0 0 1024.6 1025.0 0.0
22/05:30am -1.4 -4.0 -1.5 99 0.0 SSE 2 6 1 3 1024.3 - 0.0
22/05:00am -0.8 -3.3 -0.9 99 0.0 SW 2 6 1 3 1024.3 - 0.0
22/04:30am -0.2 -3.4 -0.3 99 0.0 SSW 6 7 3 4 1024.1 - 0.0
22/04:00am -0.1 -3.3 -0.2 99 0.0 W 6 7 3 4 1023.9 - 0.0
22/03:30am 0.0 -3.1 -0.1 99 0.0 SW 6 7 3 4 1024.2 - 0.0
22/03:00am 0.0 -3.3 -0.1 99 0.0 WSW 7 9 4 5 1024.3 1024.7 0.0
22/02:30am 0.5 -2.6 0.4 99 0.0 SSW 6 7 3 4 1024.3 - 0.0
22/02:00am 0.4 -3.6 0.3 99 0.0 SE 11 15 6 8 1024.4 - 0.0
22/01:30am 1.3 -1.6 1.2 99 0.0 S 6 7 3 4 1024.7 - 0.0
22/01:00am 1.2 -1.9 1.1 99 0.0 S 7 7 4 4 1024.7 - 0.0
22/12:30am 1.6 -0.5 1.5 99 0.0 S 2 7 1 4 1024.8 - 0.0
22/12:00am 2.0 -0.8 1.9 99 0.0 SSW 6 7 3 4 1024.7 1025.1 0.0
 
Date/Time
EST
Temp
°C
App
Temp
°C
Dew
Point
Rel
Hum
%
Delta-T
°C
Wind Press
QNH
hPa
Press
MSL
hPa
Rain
since 9 am
mm
Dir
 
Spd
km/h
Gust
km/h
Spd
kts
Gust
kts
21/11:30pm 1.9 0.2 1.6 98 0.1 CALM 0 0 0 0 1024.8 - 0.0
21/11:00pm 2.0 -1.1 1.6 97 0.2 SSE 7 9 4 5 1024.6 - 0.0
21/10:30pm 2.7 1.0 2.1 96 0.2 CALM 0 6 0 3 1024.8 - 0.0
21/10:00pm 2.9 -0.1 2.2 95 0.3 W 7 11 4 6 1024.7 - 0.0
21/09:30pm 4.4 3.0 3.4 93 0.4 CALM 0 0 0 0 1024.7 - 0.0
21/09:00pm 5.3 2.8 4.0 91 0.6 W 6 7 3 4 1024.6 1025.0 0.0
21/08:30pm 4.7 1.0 4.3 97 0.2 S 13 17 7 9 1024.5 - 0.0
21/08:00pm 4.7 3.4 4.1 96 0.3 CALM 0 0 0 0 1024.6 - 0.0
21/07:30pm 5.0 3.8 4.4 96 0.3 CALM 0 0 0 0 1024.6 - 0.0
21/07:00pm 5.1 3.8 4.2 94 0.4 CALM 0 0 0 0 1024.4 - 0.0
21/06:30pm 5.2 3.8 3.7 90 0.6 CALM 0 0 0 0 1024.2 - 0.0
21/06:00pm 6.3 5.1 4.6 89 0.7 CALM 0 0 0 0 1024.0 1024.4 0.0
21/05:30pm 7.5 6.3 4.5 81 1.3 CALM 0 0 0 0 1023.9 - 0.0
21/05:00pm 8.7 7.5 4.7 76 1.8 CALM 0 0 0 0 1023.9 - 0.0
21/04:30pm 10.2 8.9 4.1 66 2.7 CALM 0 0 0 0 1023.9 - 0.0

Other Formats:

Comma delimited format used in spreadsheet applications
http://www.bom.gov.au/fwo/IDV60801/IDV60801.94889.axf

JavaScript Object Notation format (JSON) in row-major order
http://www.bom.gov.au/fwo/IDV60801/IDV60801.94889.json